createdAt,value
2018-08-04T00:00:58.362Z,1013.81
2018-08-04T00:01:58.394Z,1013.80
2018-08-04T00:02:58.380Z,1013.81
2018-08-04T00:03:58.377Z,1013.88
2018-08-04T00:04:58.375Z,1013.83
2018-08-04T00:05:58.385Z,1013.85
2018-08-04T00:06:58.472Z,1013.86
2018-08-04T00:07:58.437Z,1013.86
2018-08-04T00:08:58.526Z,1013.83
2018-08-04T00:09:58.483Z,1013.85
2018-08-04T00:10:58.418Z,1013.85
2018-08-04T00:11:58.494Z,1013.86
2018-08-04T00:12:58.424Z,1013.82
2018-08-04T00:13:58.471Z,1013.85
2018-08-04T00:14:58.447Z,1013.84
2018-08-04T00:15:58.441Z,1013.84
2018-08-04T00:16:58.536Z,1013.91
2018-08-04T00:17:58.451Z,1013.92
2018-08-04T00:18:58.454Z,1013.91
2018-08-04T00:19:58.464Z,1013.93
2018-08-04T00:20:58.466Z,1013.93
2018-08-04T00:21:58.478Z,1013.95
2018-08-04T00:22:58.480Z,1013.98
2018-08-04T00:23:58.485Z,1013.99
2018-08-04T00:24:58.488Z,1013.99
2018-08-04T00:25:58.491Z,1013.98
2018-08-04T00:26:58.503Z,1014.00
2018-08-04T00:27:58.502Z,1013.96
2018-08-04T00:28:58.513Z,1013.96
2018-08-04T00:29:58.505Z,1013.94
2018-08-04T00:30:58.511Z,1013.95
2018-08-04T00:31:58.522Z,1013.91
2018-08-04T00:32:58.520Z,1013.91
2018-08-04T00:33:58.524Z,1013.92
2018-08-04T00:34:58.696Z,1013.93
2018-08-04T00:35:58.535Z,1013.92
2018-08-04T00:36:58.551Z,1013.89
2018-08-04T00:37:58.556Z,1013.89
2018-08-04T00:38:58.559Z,1013.90
2018-08-04T00:39:58.568Z,1013.89
2018-08-04T00:40:58.572Z,1013.88
2018-08-04T00:41:58.575Z,1013.85
2018-08-04T00:42:58.579Z,1013.86
2018-08-04T00:43:58.579Z,1013.90
2018-08-04T00:44:58.587Z,1013.91
2018-08-04T00:45:58.594Z,1013.89
2018-08-04T00:46:58.608Z,1013.89
2018-08-04T00:47:58.651Z,1013.91
2018-08-04T00:48:58.608Z,1013.88
2018-08-04T00:49:58.602Z,1013.91
2018-08-04T00:50:58.627Z,1013.90
2018-08-04T00:51:58.613Z,1013.87
2018-08-04T00:52:58.625Z,1013.85
2018-08-04T00:53:58.626Z,1013.87
2018-08-04T00:54:58.632Z,1013.85
2018-08-04T00:55:58.633Z,1013.82
2018-08-04T00:56:58.638Z,1013.79
2018-08-04T00:57:59.253Z,1013.76
2018-08-04T00:58:58.652Z,1013.76
2018-08-04T00:59:58.659Z,1013.76
2018-08-04T01:00:58.675Z,1013.72
2018-08-04T01:01:58.671Z,1013.73
2018-08-04T01:02:58.671Z,1013.74
2018-08-04T01:03:58.670Z,1013.77
2018-08-04T01:04:58.691Z,1013.82
2018-08-04T01:05:58.685Z,1013.81
2018-08-04T01:06:58.691Z,1013.85
2018-08-04T01:07:58.700Z,1013.84
2018-08-04T01:08:58.710Z,1013.83
2018-08-04T01:09:58.701Z,1013.86
2018-08-04T01:10:58.798Z,1013.88
2018-08-04T01:11:58.711Z,1013.86
2018-08-04T01:12:58.719Z,1013.89
2018-08-04T01:13:58.722Z,1013.91
2018-08-04T01:14:58.727Z,1013.89
2018-08-04T01:15:58.735Z,1013.90
2018-08-04T01:16:58.737Z,1013.89
2018-08-04T01:17:58.744Z,1013.86
2018-08-04T01:18:58.746Z,1013.88
2018-08-04T01:19:58.753Z,1013.90
2018-08-04T01:20:58.753Z,1013.92
2018-08-04T01:21:58.760Z,1013.90
2018-08-04T01:22:58.764Z,1013.89
2018-08-04T01:23:58.768Z,1013.90
2018-08-04T01:24:58.766Z,1013.89
2018-08-04T01:25:58.767Z,1013.89
2018-08-04T01:26:58.781Z,1013.94
2018-08-04T01:27:58.787Z,1013.89
2018-08-04T01:28:58.795Z,1013.88
2018-08-04T01:29:58.799Z,1013.89
2018-08-04T01:30:58.788Z,1013.90
2018-08-04T01:31:58.802Z,1013.83
2018-08-04T01:32:58.805Z,1013.87
2018-08-04T01:33:58.864Z,1013.85
2018-08-04T01:34:58.832Z,1013.85
2018-08-04T01:35:58.822Z,1013.87
2018-08-04T01:36:58.829Z,1013.85
2018-08-04T01:37:58.839Z,1013.78
2018-08-04T01:38:58.943Z,1013.80
2018-08-04T01:39:58.841Z,1013.81
2018-08-04T01:40:58.848Z,1013.84
2018-08-04T01:41:58.859Z,1013.82
2018-08-04T01:42:58.863Z,1013.83
2018-08-04T01:43:58.861Z,1013.82
2018-08-04T01:44:58.862Z,1013.82
2018-08-04T01:45:58.866Z,1013.82
2018-08-04T01:46:58.873Z,1013.78
2018-08-04T01:47:58.877Z,1013.74
2018-08-04T01:48:58.881Z,1013.75
2018-08-04T01:49:58.890Z,1013.75
2018-08-04T01:50:58.893Z,1013.68
2018-08-04T01:51:58.892Z,1013.67
2018-08-04T01:52:58.898Z,1013.67
2018-08-04T01:53:58.908Z,1013.67
2018-08-04T01:54:58.907Z,1013.70
2018-08-04T01:55:58.923Z,1013.66
2018-08-04T01:56:58.907Z,1013.71
2018-08-04T01:57:58.919Z,1013.68
2018-08-04T01:58:58.940Z,1013.65
2018-08-04T01:59:58.929Z,1013.64
2018-08-04T02:00:58.935Z,1013.61
2018-08-04T02:01:59.779Z,1013.58
2018-08-04T02:02:58.942Z,1013.64
2018-08-04T02:03:58.949Z,1013.57
2018-08-04T02:04:58.953Z,1013.61
2018-08-04T02:05:58.948Z,1013.60
2018-08-04T02:06:58.966Z,1013.55
2018-08-04T02:07:58.965Z,1013.58
2018-08-04T02:08:58.982Z,1013.59
2018-08-04T02:09:58.967Z,1013.61
2018-08-04T02:10:58.980Z,1013.60
2018-08-04T02:11:58.984Z,1013.58
2018-08-04T02:12:58.984Z,1013.62
2018-08-04T02:13:58.994Z,1013.63
2018-08-04T02:14:58.993Z,1013.67
2018-08-04T02:15:59.000Z,1013.72
2018-08-04T02:16:59.004Z,1013.69
2018-08-04T02:17:59.014Z,1013.70
2018-08-04T02:18:59.021Z,1013.67
2018-08-04T02:19:59.014Z,1013.65
2018-08-04T02:20:59.025Z,1013.60
2018-08-04T02:21:59.032Z,1013.61
2018-08-04T02:22:59.027Z,1013.60
2018-08-04T02:23:59.033Z,1013.58
2018-08-04T02:24:59.038Z,1013.61
2018-08-04T02:25:59.044Z,1013.58
2018-08-04T02:26:59.051Z,1013.60
2018-08-04T02:27:59.061Z,1013.58
2018-08-04T02:28:59.058Z,1013.62
2018-08-04T02:29:59.062Z,1013.62
2018-08-04T02:30:59.062Z,1013.64
2018-08-04T02:31:59.058Z,1013.65
2018-08-04T02:32:59.067Z,1013.63
2018-08-04T02:33:59.071Z,1013.64
2018-08-04T02:34:59.085Z,1013.61
2018-08-04T02:35:59.084Z,1013.59
2018-08-04T02:36:59.100Z,1013.63
2018-08-04T02:37:59.093Z,1013.57
2018-08-04T02:38:59.095Z,1013.58
2018-08-04T02:39:59.099Z,1013.59
2018-08-04T02:40:59.106Z,1013.56
2018-08-04T02:41:59.111Z,1013.55
2018-08-04T02:42:59.124Z,1013.54
2018-08-04T02:43:59.122Z,1013.55
2018-08-04T02:44:59.132Z,1013.57
2018-08-04T02:45:59.122Z,1013.55
2018-08-04T02:46:59.137Z,1013.53
2018-08-04T02:47:59.134Z,1013.52
2018-08-04T02:48:59.138Z,1013.55
2018-08-04T02:49:59.151Z,1013.55
2018-08-04T02:50:59.150Z,1013.54
2018-08-04T02:51:59.152Z,1013.57
2018-08-04T02:52:59.151Z,1013.57
2018-08-04T02:53:59.180Z,1013.58
2018-08-04T02:54:59.166Z,1013.50
2018-08-04T02:55:59.172Z,1013.49
2018-08-04T02:56:59.179Z,1013.49
2018-08-04T02:57:59.179Z,1013.49
2018-08-04T02:58:59.183Z,1013.46
2018-08-04T02:59:59.194Z,1013.47
2018-08-04T03:00:59.192Z,1013.49
2018-08-04T03:01:59.197Z,1013.50
2018-08-04T03:02:59.195Z,1013.49
2018-08-04T03:03:59.207Z,1013.52
2018-08-04T03:04:59.207Z,1013.50
2018-08-04T03:05:59.211Z,1013.53
2018-08-04T03:06:59.220Z,1013.52
2018-08-04T03:07:59.219Z,1013.49
2018-08-04T03:08:59.239Z,1013.43
2018-08-04T03:09:59.248Z,1013.47
2018-08-04T03:10:59.241Z,1013.47
2018-08-04T03:11:59.237Z,1013.41
2018-08-04T03:12:59.240Z,1013.38
2018-08-04T03:13:59.242Z,1013.38
2018-08-04T03:14:59.247Z,1013.41
2018-08-04T03:15:59.256Z,1013.38
2018-08-04T03:16:59.257Z,1013.39
2018-08-04T03:17:59.262Z,1013.41
2018-08-04T03:18:59.270Z,1013.33
2018-08-04T03:19:59.303Z,1013.32
2018-08-04T03:20:59.272Z,1013.34
2018-08-04T03:21:59.268Z,1013.33
2018-08-04T03:22:59.281Z,1013.36
2018-08-04T03:23:59.287Z,1013.36
2018-08-04T03:24:59.287Z,1013.34
2018-08-04T03:25:59.290Z,1013.30
2018-08-04T03:26:59.293Z,1013.35
2018-08-04T03:27:59.303Z,1013.29
2018-08-04T03:28:59.307Z,1013.29
2018-08-04T03:29:59.823Z,1013.31
2018-08-04T03:30:59.310Z,1013.28
2018-08-04T03:31:59.316Z,1013.29
2018-08-04T03:32:59.314Z,1013.32
2018-08-04T03:33:59.332Z,1013.36
2018-08-04T03:34:59.315Z,1013.35
2018-08-04T03:35:59.330Z,1013.33
2018-08-04T03:36:59.348Z,1013.37
2018-08-04T03:37:59.338Z,1013.37
2018-08-04T03:38:59.346Z,1013.38
2018-08-04T03:39:59.349Z,1013.34
2018-08-04T03:40:59.349Z,1013.34
2018-08-04T03:41:59.358Z,1013.34
2018-08-04T03:42:59.362Z,1013.34
2018-08-04T03:43:59.365Z,1013.30
2018-08-04T03:44:59.374Z,1013.32
2018-08-04T03:45:59.377Z,1013.30
2018-08-04T03:46:59.375Z,1013.30
2018-08-04T03:47:59.383Z,1013.29
2018-08-04T03:48:59.381Z,1013.30
2018-08-04T03:49:59.378Z,1013.32
2018-08-04T03:50:59.388Z,1013.38
2018-08-04T03:51:59.399Z,1013.33
2018-08-04T03:52:59.397Z,1013.35
2018-08-04T03:53:59.401Z,1013.34
2018-08-04T03:54:59.407Z,1013.33
2018-08-04T03:55:59.411Z,1013.37
2018-08-04T03:56:59.418Z,1013.35
2018-08-04T03:57:59.425Z,1013.41
2018-08-04T03:58:59.415Z,1013.35
2018-08-04T03:59:59.425Z,1013.40
2018-08-04T04:00:59.431Z,1013.34
2018-08-04T04:01:59.435Z,1013.34
2018-08-04T04:02:59.441Z,1013.34
2018-08-04T04:03:59.460Z,1013.33
2018-08-04T04:04:59.449Z,1013.31
2018-08-04T04:05:59.450Z,1013.28
2018-08-04T04:06:59.458Z,1013.28
2018-08-04T04:07:59.532Z,1013.29
2018-08-04T04:08:59.460Z,1013.29
2018-08-04T04:09:59.465Z,1013.33
2018-08-04T04:10:59.471Z,1013.32
2018-08-04T04:11:59.476Z,1013.32
2018-08-04T04:12:59.476Z,1013.37
2018-08-04T04:13:59.472Z,1013.40
2018-08-04T04:14:59.485Z,1013.38
2018-08-04T04:15:59.487Z,1013.38
2018-08-04T04:16:59.493Z,1013.42
2018-08-04T04:17:59.505Z,1013.43
2018-08-04T04:18:59.508Z,1013.39
2018-08-04T04:19:59.581Z,1013.40
2018-08-04T04:20:59.606Z,1013.41
2018-08-04T04:21:59.511Z,1013.41
2018-08-04T04:22:59.522Z,1013.48
2018-08-04T04:23:59.522Z,1013.51
2018-08-04T04:24:59.529Z,1013.57
2018-08-04T04:25:59.526Z,1013.66
2018-08-04T04:26:59.535Z,1013.71
2018-08-04T04:27:59.541Z,1013.71
2018-08-04T04:28:59.546Z,1013.73
2018-08-04T04:29:59.550Z,1013.73
2018-08-04T04:30:59.550Z,1013.70
2018-08-04T04:31:59.575Z,1013.71
2018-08-04T04:32:59.551Z,1013.70
2018-08-04T04:33:59.563Z,1013.73
2018-08-04T04:34:59.559Z,1013.73
2018-08-04T04:35:59.575Z,1013.73
2018-08-04T04:36:59.623Z,1013.73
2018-08-04T04:37:59.567Z,1013.74
2018-08-04T04:38:59.605Z,1013.74
2018-08-04T04:39:59.586Z,1013.79
2018-08-04T04:40:59.585Z,1013.76
2018-08-04T04:41:59.594Z,1013.74
2018-08-04T04:42:59.594Z,1013.78
2018-08-04T04:43:59.599Z,1013.79
2018-08-04T04:44:59.607Z,1013.80
2018-08-04T04:45:59.607Z,1013.82
2018-08-04T04:46:59.620Z,1013.83
2018-08-04T04:47:59.613Z,1013.83
2018-08-04T04:49:00.355Z,1013.79
2018-08-04T04:49:59.621Z,1013.73
2018-08-04T04:50:59.628Z,1013.74
2018-08-04T04:51:59.626Z,1013.68
2018-08-04T04:52:59.638Z,1013.71
2018-08-04T04:53:59.640Z,1013.66
2018-08-04T04:54:59.655Z,1013.66
2018-08-04T04:55:59.644Z,1013.68
2018-08-04T04:56:59.666Z,1013.65
2018-08-04T04:57:59.660Z,1013.68
2018-08-04T04:58:59.668Z,1013.72
2018-08-04T04:59:59.668Z,1013.74
2018-08-04T05:00:59.669Z,1013.73
2018-08-04T05:01:59.730Z,1013.72
2018-08-04T05:02:59.684Z,1013.70
2018-08-04T05:03:59.685Z,1013.70
2018-08-04T05:04:59.689Z,1013.69
2018-08-04T05:05:59.703Z,1013.71
2018-08-04T05:06:59.698Z,1013.70
2018-08-04T05:07:59.702Z,1013.75
2018-08-04T05:08:59.705Z,1013.77
2018-08-04T05:09:59.713Z,1013.80
2018-08-04T05:10:59.702Z,1013.73
2018-08-04T05:11:59.711Z,1013.75
2018-08-04T05:12:59.720Z,1013.67
2018-08-04T05:13:59.720Z,1013.63
2018-08-04T05:14:59.736Z,1013.67
2018-08-04T05:15:59.767Z,1013.67
2018-08-04T05:16:59.733Z,1013.67
2018-08-04T05:17:59.736Z,1013.70
2018-08-04T05:18:59.747Z,1013.72
2018-08-04T05:19:59.752Z,1013.73
2018-08-04T05:20:59.752Z,1013.71
2018-08-04T05:21:59.780Z,1013.74
2018-08-04T05:22:59.760Z,1013.76
2018-08-04T05:23:59.773Z,1013.77
2018-08-04T05:24:59.768Z,1013.78
2018-08-04T05:25:59.785Z,1013.80
2018-08-04T05:26:59.781Z,1013.87
2018-08-04T05:27:59.777Z,1013.90
2018-08-04T05:28:59.790Z,1013.92
2018-08-04T05:29:59.933Z,1013.92
2018-08-04T05:30:59.796Z,1013.90
2018-08-04T05:31:59.812Z,1013.88
2018-08-04T05:32:59.801Z,1013.94
2018-08-04T05:33:59.800Z,1013.93
2018-08-04T05:34:59.824Z,1013.93
2018-08-04T05:35:59.806Z,1013.94
2018-08-04T05:36:59.814Z,1013.97
2018-08-04T05:37:59.827Z,1013.99
2018-08-04T05:38:59.824Z,1013.99
2018-08-04T05:39:59.833Z,1014.01
2018-08-04T05:40:59.835Z,1014.02
2018-08-04T05:41:59.844Z,1014.03
2018-08-04T05:42:59.926Z,1014.01
2018-08-04T05:43:59.852Z,1014.05
2018-08-04T05:44:59.863Z,1014.04
2018-08-04T05:45:59.861Z,1014.02
2018-08-04T05:46:59.862Z,1014.06
2018-08-04T05:47:59.865Z,1014.03
2018-08-04T05:48:59.872Z,1014.04
2018-08-04T05:49:59.926Z,1014.08
2018-08-04T05:50:59.881Z,1014.10
2018-08-04T05:51:59.886Z,1014.05
2018-08-04T05:52:59.935Z,1014.10
2018-08-04T05:53:59.914Z,1014.11
2018-08-04T05:54:59.901Z,1014.14
2018-08-04T05:55:59.909Z,1014.14
2018-08-04T05:56:59.908Z,1014.19
2018-08-04T05:57:59.963Z,1014.18
2018-08-04T05:58:59.921Z,1014.19
2018-08-04T05:59:59.929Z,1014.13
2018-08-04T06:00:59.925Z,1014.16
2018-08-04T06:01:59.940Z,1014.16
2018-08-04T06:03:00.389Z,1014.17
2018-08-04T06:03:59.933Z,1014.17
2018-08-04T06:04:59.936Z,1014.18
2018-08-04T06:05:59.985Z,1014.20
2018-08-04T06:06:59.951Z,1014.21
2018-08-04T06:07:59.950Z,1014.20
2018-08-04T06:08:59.964Z,1014.17
2018-08-04T06:09:59.968Z,1014.18
2018-08-04T06:10:59.971Z,1014.16
2018-08-04T06:11:59.976Z,1014.15
2018-08-04T06:12:59.979Z,1014.15
2018-08-04T06:13:59.980Z,1014.18
2018-08-04T06:14:59.999Z,1014.22
2018-08-04T06:15:59.993Z,1014.20
2018-08-04T06:17:00.003Z,1014.25
2018-08-04T06:18:00.011Z,1014.22
2018-08-04T06:19:00.006Z,1014.28
2018-08-04T06:20:00.025Z,1014.35
2018-08-04T06:21:00.021Z,1014.40
2018-08-04T06:22:00.041Z,1014.44
2018-08-04T06:23:00.039Z,1014.44
2018-08-04T06:24:00.053Z,1014.42
2018-08-04T06:25:00.048Z,1014.43
2018-08-04T06:26:00.047Z,1014.46
2018-08-04T06:27:00.061Z,1014.49
2018-08-04T06:28:00.058Z,1014.48
2018-08-04T06:29:00.066Z,1014.48
2018-08-04T06:30:00.084Z,1014.54
2018-08-04T06:31:00.090Z,1014.51
2018-08-04T06:32:00.094Z,1014.58
2018-08-04T06:33:00.090Z,1014.63
2018-08-04T06:34:00.094Z,1014.63
2018-08-04T06:35:00.088Z,1014.61
2018-08-04T06:36:00.110Z,1014.64
2018-08-04T06:37:00.109Z,1014.67
2018-08-04T06:38:00.124Z,1014.66
2018-08-04T06:39:00.132Z,1014.73
2018-08-04T06:40:00.138Z,1014.68
2018-08-04T06:41:00.206Z,1014.76
2018-08-04T06:42:00.163Z,1014.76
2018-08-04T06:43:00.172Z,1014.71
2018-08-04T06:44:00.172Z,1014.73
2018-08-04T06:45:00.163Z,1014.65
2018-08-04T06:46:00.187Z,1014.66
2018-08-04T06:47:00.219Z,1014.73
2018-08-04T06:48:00.201Z,1014.72
2018-08-04T06:49:00.211Z,1014.67
2018-08-04T06:50:00.211Z,1014.70
2018-08-04T06:51:00.226Z,1014.71
2018-08-04T06:52:00.232Z,1014.74
2018-08-04T06:53:00.979Z,1014.72
2018-08-04T06:54:00.323Z,1014.71
2018-08-04T06:55:00.253Z,1014.78
2018-08-04T06:56:00.265Z,1014.74
2018-08-04T06:57:00.278Z,1014.77
2018-08-04T06:58:00.284Z,1014.76
2018-08-04T06:59:00.280Z,1014.80
2018-08-04T07:00:00.306Z,1014.86
2018-08-04T07:01:00.306Z,1014.83
2018-08-04T07:02:00.315Z,1014.80
2018-08-04T07:03:00.320Z,1014.76
2018-08-04T07:04:00.332Z,1014.77
2018-08-04T07:05:00.342Z,1014.83
2018-08-04T07:06:00.342Z,1014.83
2018-08-04T07:07:00.360Z,1014.88
2018-08-04T07:08:00.370Z,1014.92
2018-08-04T07:09:00.377Z,1014.90
2018-08-04T07:10:00.377Z,1014.90
2018-08-04T07:11:00.390Z,1014.95
2018-08-04T07:12:00.395Z,1014.94
2018-08-04T07:13:00.399Z,1014.89
2018-08-04T07:14:00.408Z,1014.91
2018-08-04T07:15:00.432Z,1014.92
2018-08-04T07:16:00.434Z,1014.97
2018-08-04T07:17:00.450Z,1015.06
2018-08-04T07:18:00.443Z,1015.08
2018-08-04T07:19:00.585Z,1015.13
2018-08-04T07:20:00.472Z,1015.06
2018-08-04T07:21:00.486Z,1015.23
2018-08-04T07:22:00.508Z,1015.27
2018-08-04T07:23:00.567Z,1015.29
2018-08-04T07:24:00.516Z,1015.28
2018-08-04T07:25:00.518Z,1015.19
2018-08-04T07:26:00.525Z,1015.23
2018-08-04T07:27:00.557Z,1015.40
2018-08-04T07:28:00.553Z,1015.59
2018-08-04T07:29:00.606Z,1015.49
2018-08-04T07:30:00.575Z,1015.29
2018-08-04T07:31:00.568Z,1015.17
2018-08-04T07:32:00.592Z,1015.28
2018-08-04T07:33:00.591Z,1015.35
2018-08-04T07:34:00.609Z,1015.22
2018-08-04T07:35:00.605Z,1015.26
2018-08-04T07:36:00.624Z,1015.60
2018-08-04T07:37:00.632Z,1015.61
2018-08-04T07:38:00.650Z,1015.61
2018-08-04T07:39:00.681Z,1015.63
2018-08-04T07:40:00.669Z,1015.60
2018-08-04T07:41:00.702Z,1015.86
2018-08-04T07:42:00.695Z,1015.71
2018-08-04T07:43:00.699Z,1015.94
2018-08-04T07:44:00.712Z,1015.91
2018-08-04T07:45:00.724Z,1015.84
2018-08-04T07:46:00.741Z,1015.53
2018-08-04T07:47:00.750Z,1015.62
2018-08-04T07:48:00.773Z,1015.61
2018-08-04T07:49:00.816Z,1015.81
2018-08-04T07:50:00.775Z,1016.15
2018-08-04T07:51:00.799Z,1016.29
2018-08-04T07:52:00.821Z,1016.01
2018-08-04T07:53:00.822Z,1015.94
2018-08-04T07:54:00.841Z,1016.69
2018-08-04T07:55:00.843Z,1016.55
2018-08-04T07:56:00.855Z,1016.73
2018-08-04T07:57:00.872Z,1016.85
2018-08-04T07:58:00.872Z,1016.84
2018-08-04T07:59:00.894Z,1016.90
2018-08-04T08:00:00.900Z,1016.93
2018-08-04T08:01:00.918Z,1017.03
2018-08-04T08:02:00.920Z,1017.05
2018-08-04T08:03:00.940Z,1017.16
2018-08-04T08:04:00.971Z,1017.27
2018-08-04T08:05:01.020Z,1017.29
2018-08-04T08:06:00.973Z,1017.43
2018-08-04T08:07:00.996Z,1017.51
2018-08-04T08:08:01.016Z,1017.55
2018-08-04T08:09:01.045Z,1017.68
2018-08-04T08:10:01.032Z,1017.80
2018-08-04T08:11:01.069Z,1017.95
2018-08-04T08:12:01.070Z,1018.16
2018-08-04T08:13:01.089Z,1018.36
2018-08-04T08:14:01.108Z,1018.76
2018-08-04T08:15:01.119Z,1019.53
2018-08-04T08:16:01.142Z,1021.91
2018-08-04T08:17:01.974Z,1027.43
2018-08-04T08:18:01.170Z,1034.95
2018-08-04T08:19:01.201Z,1038.79
2018-08-04T08:20:01.211Z,1042.94
2018-08-04T08:21:01.215Z,1042.38
2018-08-04T08:22:01.236Z,1043.44
2018-08-04T08:23:01.259Z,1045.37
2018-08-04T08:24:01.267Z,1044.80
2018-08-04T08:25:01.295Z,1044.84
2018-08-04T08:26:01.297Z,1042.95
2018-08-04T08:27:01.354Z,1043.16
2018-08-04T08:28:01.340Z,1045.10
2018-08-04T08:29:01.354Z,1044.76
2018-08-04T08:30:01.377Z,1045.24
2018-08-04T08:31:01.397Z,1044.05
2018-08-04T08:32:01.407Z,1045.94
2018-08-04T08:33:01.416Z,1045.15
2018-08-04T08:34:01.438Z,1046.18
2018-08-04T08:35:01.463Z,1045.27
2018-08-04T08:36:01.478Z,1044.50
2018-08-04T08:37:01.541Z,1044.65
2018-08-04T08:38:01.514Z,1045.39
2018-08-04T08:39:01.532Z,1047.50
2018-08-04T08:40:01.553Z,1047.27
2018-08-04T08:41:01.586Z,1044.40
2018-08-04T08:42:01.592Z,1044.63
2018-08-04T08:43:01.616Z,1047.38
2018-08-04T08:44:01.632Z,1047.13
2018-08-04T08:45:01.648Z,1045.69
2018-08-04T08:46:01.663Z,1044.07
2018-08-04T08:47:02.489Z,1042.10
2018-08-04T08:48:01.707Z,1042.92
2018-08-04T08:49:01.730Z,1044.85
2018-08-04T08:50:01.745Z,1045.70
2018-08-04T08:51:01.765Z,1044.85
2018-08-04T08:52:01.784Z,1043.67
2018-08-04T08:53:01.890Z,1042.84
2018-08-04T08:54:01.932Z,1042.55
2018-08-04T08:55:01.839Z,1042.43
2018-08-04T08:56:01.867Z,1041.33
2018-08-04T08:57:01.882Z,1040.85
2018-08-04T08:58:01.903Z,1037.75
2018-08-04T08:59:01.921Z,1038.17
2018-08-04T09:00:01.952Z,1041.43
2018-08-04T09:01:01.949Z,1040.52
2018-08-04T09:02:01.985Z,1036.16
2018-08-04T09:03:02.003Z,1037.83
2018-08-04T09:04:02.012Z,1039.54
2018-08-04T09:05:02.066Z,1038.50
2018-08-04T09:06:02.158Z,1037.20
2018-08-04T09:07:02.089Z,1034.38
2018-08-04T09:08:02.122Z,1034.08
2018-08-04T09:09:02.123Z,1033.67
2018-08-04T09:10:02.147Z,1031.94
2018-08-04T09:11:02.170Z,1031.46
2018-08-04T09:12:02.184Z,1029.38
2018-08-04T09:13:02.205Z,1027.24
2018-08-04T09:14:02.224Z,1025.77
2018-08-04T09:15:02.259Z,1023.70
2018-08-04T09:16:02.289Z,1022.02
2018-08-04T09:17:02.302Z,1020.83
2018-08-04T09:18:02.308Z,1020.05
2018-08-04T09:19:02.324Z,1019.29
2018-08-04T09:20:02.353Z,1018.83
2018-08-04T09:21:02.425Z,1018.28
2018-08-04T09:22:02.430Z,1017.92
2018-08-04T09:23:02.462Z,1017.71
2018-08-04T09:24:02.439Z,1017.57
2018-08-04T09:25:02.467Z,1017.44
2018-08-04T09:26:02.484Z,1017.29
2018-08-04T09:27:02.505Z,1017.02
2018-08-04T09:28:02.518Z,1016.93
2018-08-04T09:29:02.537Z,1016.95
2018-08-04T09:30:02.567Z,1016.85
2018-08-04T09:31:02.586Z,1016.77
2018-08-04T09:32:02.608Z,1016.72
2018-08-04T09:33:02.622Z,1016.66
2018-08-04T09:34:02.649Z,1016.60
2018-08-04T09:35:02.657Z,1016.58
2018-08-04T09:36:02.696Z,1016.59
2018-08-04T09:37:02.701Z,1016.58
2018-08-04T09:38:02.747Z,1016.55
2018-08-04T09:39:02.775Z,1016.49
2018-08-04T09:40:02.775Z,1016.44
2018-08-04T09:41:02.804Z,1016.38
2018-08-04T09:42:02.823Z,1016.33
2018-08-04T09:43:02.857Z,1016.27
2018-08-04T09:44:02.868Z,1016.26
2018-08-04T09:45:02.889Z,1016.32
2018-08-04T09:46:02.909Z,1016.21
2018-08-04T09:47:02.929Z,1016.18
2018-08-04T09:48:02.947Z,1016.24
2018-08-04T09:49:02.987Z,1016.31
2018-08-04T09:50:03.020Z,1016.34
2018-08-04T09:51:03.030Z,1016.34
2018-08-04T09:52:03.053Z,1016.37
2018-08-04T09:53:03.085Z,1016.33
2018-08-04T09:54:03.094Z,1016.24
2018-08-04T09:55:03.111Z,1016.16
2018-08-04T09:56:03.144Z,1016.13
2018-08-04T09:57:03.178Z,1016.14
2018-08-04T09:58:03.180Z,1016.04
2018-08-04T09:59:03.202Z,1015.94
2018-08-04T10:00:03.229Z,1015.89
2018-08-04T10:01:03.244Z,1015.99
2018-08-04T10:02:03.269Z,1015.99
2018-08-04T10:03:03.298Z,1015.87
2018-08-04T10:04:03.318Z,1015.86
2018-08-04T10:05:03.359Z,1015.86
2018-08-04T10:06:03.371Z,1015.87
2018-08-04T10:07:03.391Z,1015.92
2018-08-04T10:08:03.410Z,1015.81
2018-08-04T10:09:03.439Z,1015.82
2018-08-04T10:10:03.456Z,1015.83
2018-08-04T10:11:03.506Z,1015.81
2018-08-04T10:12:03.502Z,1015.76
2018-08-04T10:13:03.528Z,1015.67
2018-08-04T10:14:03.548Z,1015.55
2018-08-04T10:15:03.585Z,1015.54
2018-08-04T10:16:03.589Z,1015.51
2018-08-04T10:17:03.626Z,1015.45
2018-08-04T10:18:03.662Z,1015.42
2018-08-04T10:19:03.678Z,1015.39
2018-08-04T10:20:03.693Z,1015.28
2018-08-04T10:21:03.715Z,1015.36
2018-08-04T10:22:03.751Z,1015.30
2018-08-04T10:23:03.768Z,1015.27
2018-08-04T10:24:03.791Z,1015.34
2018-08-04T10:25:03.829Z,1015.29
2018-08-04T10:26:03.875Z,1015.27
2018-08-04T10:27:03.887Z,1015.26
2018-08-04T10:28:03.892Z,1015.25
2018-08-04T10:29:03.918Z,1015.20
2018-08-04T10:30:03.948Z,1015.15
2018-08-04T10:31:03.960Z,1015.16
2018-08-04T10:32:04.097Z,1015.11
2018-08-04T10:33:04.016Z,1015.15
2018-08-04T10:34:04.040Z,1015.14
2018-08-04T10:35:04.068Z,1015.20
2018-08-04T10:36:04.105Z,1015.17
2018-08-04T10:37:04.098Z,1015.26
2018-08-04T10:38:04.135Z,1015.26
2018-08-04T10:39:04.246Z,1015.26
2018-08-04T10:40:04.186Z,1015.24
2018-08-04T10:41:04.215Z,1015.15
2018-08-04T10:42:04.244Z,1015.16
2018-08-04T10:43:04.257Z,1015.16
2018-08-04T10:44:04.329Z,1015.12
2018-08-04T10:45:04.311Z,1015.15
2018-08-04T10:46:04.318Z,1015.12
2018-08-04T10:47:04.354Z,1015.09
2018-08-04T10:48:04.384Z,1015.07
2018-08-04T10:49:04.389Z,1015.05
2018-08-04T10:50:04.412Z,1015.00
2018-08-04T10:51:04.572Z,1015.03
2018-08-04T10:52:04.480Z,1015.08
2018-08-04T10:53:04.487Z,1015.05
2018-08-04T10:54:04.514Z,1014.99
2018-08-04T10:55:04.544Z,1014.90
2018-08-04T10:56:04.554Z,1014.83
2018-08-04T10:57:04.600Z,1014.64
2018-08-04T10:58:04.603Z,1014.58
2018-08-04T10:59:04.621Z,1014.51
2018-08-04T11:00:04.644Z,1014.51
2018-08-04T11:01:04.738Z,1014.44
2018-08-04T11:02:04.701Z,1014.51
2018-08-04T11:03:04.713Z,1014.53
2018-08-04T11:04:04.728Z,1014.51
2018-08-04T11:05:04.750Z,1014.48
2018-08-04T11:06:04.765Z,1014.49
2018-08-04T11:07:04.808Z,1014.44
2018-08-04T11:08:04.803Z,1014.43
2018-08-04T11:09:04.817Z,1014.40
2018-08-04T11:10:04.845Z,1014.40
2018-08-04T11:11:04.859Z,1014.42
2018-08-04T11:12:04.869Z,1014.45
2018-08-04T11:13:04.890Z,1014.44
2018-08-04T11:14:04.906Z,1014.43
2018-08-04T11:15:04.930Z,1014.43
2018-08-04T11:16:04.946Z,1014.38
2018-08-04T11:17:04.958Z,1014.37
2018-08-04T11:18:05.021Z,1014.35
2018-08-04T11:19:04.984Z,1014.32
2018-08-04T11:20:04.998Z,1014.33
2018-08-04T11:21:05.053Z,1014.32
2018-08-04T11:22:05.048Z,1014.26
2018-08-04T11:23:05.042Z,1014.26
2018-08-04T11:24:05.061Z,1014.24
2018-08-04T11:25:05.069Z,1014.28
2018-08-04T11:26:05.089Z,1014.36
2018-08-04T11:27:05.096Z,1014.39
2018-08-04T11:28:05.166Z,1014.31
2018-08-04T11:29:05.130Z,1014.32
2018-08-04T11:30:05.143Z,1014.32
2018-08-04T11:31:05.150Z,1014.34
2018-08-04T11:32:05.166Z,1014.36
2018-08-04T11:33:05.179Z,1014.36
2018-08-04T11:34:05.189Z,1014.32
2018-08-04T11:35:05.202Z,1014.28
2018-08-04T11:36:05.221Z,1014.31
2018-08-04T11:37:05.225Z,1014.29
2018-08-04T11:38:05.244Z,1014.28
2018-08-04T11:39:05.269Z,1014.27
2018-08-04T11:40:05.278Z,1014.20
2018-08-04T11:41:05.285Z,1014.20
2018-08-04T11:42:05.298Z,1014.22
2018-08-04T11:43:06.085Z,1014.24
2018-08-04T11:44:05.320Z,1014.20
2018-08-04T11:45:05.330Z,1014.20
2018-08-04T11:46:05.345Z,1014.28
2018-08-04T11:47:05.361Z,1014.26
2018-08-04T11:48:05.371Z,1014.31
2018-08-04T11:49:05.383Z,1014.29
2018-08-04T11:50:05.394Z,1014.34
2018-08-04T11:51:05.409Z,1014.31
2018-08-04T11:52:05.416Z,1014.27
2018-08-04T11:53:05.535Z,1014.26
2018-08-04T11:54:05.446Z,1014.21
2018-08-04T11:55:05.452Z,1014.21
2018-08-04T11:56:05.502Z,1014.16
2018-08-04T11:57:05.472Z,1014.18
2018-08-04T11:58:05.484Z,1014.15
2018-08-04T11:59:05.506Z,1014.17
2018-08-04T12:00:05.514Z,1014.15
2018-08-04T12:01:05.511Z,1014.07
2018-08-04T12:02:05.553Z,1014.12
2018-08-04T12:03:05.556Z,1014.19
2018-08-04T12:04:06.101Z,1014.18
2018-08-04T12:05:05.563Z,1014.18
2018-08-04T12:06:05.579Z,1014.15